Norwegian Spirit — C6TQ6 — position and weather

sailwx.info

Track history (hours):
 
Tides and Currents Weather Stations Pressure Air Temp Water Temp Dewpoint Dewpoint Depression Visibility Wind Speed Wind Dir Waves Ship Positions

Norwegian Spirit

Operator: Norwegian Cruise Line

Last reported at 2017-May-25 02:30 UTC. Time now 2017-May-25 02:53 UTC.
Position N 38°48' E 010°45'.

Type: Passenger vessel. MMSI: 311746000.

Date/timePositionNaut miles runAvg speedWind from/ knotsBaromVisibWave heightAir tempDewpointWater temp
2017-May-25 02:30N 38°48' E 010°45'4 7.1
2017-May-25 02:00N 38°49' E 010°40'4 7.3
2017-May-25 01:29N 38°50' E 010°36'917.6
2017-May-25 01:00N 38°42' E 010°30'82440.8 200 / 131017.0 20.016.921.0
2017-May-25 00:59N 38°50' E 010°31'4 7.6
2017-May-25 00:30N 38°51' E 010°26'4 7.6
2017-May-24 23:59N 38°51' E 010°21'4 7.5
2017-May-24 23:27N 38°52' E 010°16'3 7.4
2017-May-24 23:00N 38°53' E 010°12'5511.9
2017-May-24 23:00N 38°48' E 010°12'613.1 190 / 131017.0 20.018.521.0
2017-May-24 22:30N 38°53' E 010°07'4 7.3
2017-May-24 21:59N 38°54' E 010°02'4 7.3
2017-May-24 21:25N 38°55' E 009°57'3 7.4
2017-May-24 21:00N 38°55' E 009°53'4 7.2
2017-May-24 20:30N 38°56' E 009°49'4 8.0
2017-May-24 19:57N 38°56' E 009°43'4 9.0
2017-May-24 19:30N 38°57' E 009°38'4 9.1
2017-May-24 19:00N 38°58' E 009°32'5 9.0
2017-May-24 18:29N 38°60' E 009°27'4 9.1
2017-May-24 18:00N 39°01' E 009°21'5 9.2
2017-May-24 17:30N 39°03' E 009°16'4 9.1
2017-May-24 17:00N 39°05' E 009°11'5 9.1
2017-May-24 16:30N 39°09' E 009°07'4 7.8
2017-May-24 15:59N 39°12' E 009°06'0 0.1
2017-May-24 15:30N 39°13' E 009°06'0 0.0
2017-May-24 15:00N 39°13' E 009°06'0 0.0
2017-May-24 14:30N 39°13' E 009°06'0 0.0
2017-May-24 13:30N 39°13' E 009°06'0 0.0
2017-May-24 13:00N 39°13' E 009°06'0 0.0
2017-May-24 12:30N 39°13' E 009°06'0 0.0
2017-May-24 12:00N 39°13' E 009°06'0 0.0
2017-May-24 11:30N 39°13' E 009°06'0 0.0
2017-May-24 11:00N 39°13' E 009°06'0 0.0
2017-May-24 10:30N 39°13' E 009°06'0 0.0
2017-May-24 10:00N 39°13' E 009°06'9810.9
2017-May-24 01:00N 38°42' E 007°06'3316.4 040 / 81020.0 19.019.021.0
2017-May-23 23:00N 38°42' E 006°24'9221.0 040 / 71020.0 19.015.921.0
2017-May-23 18:37N 38°54' E 004°27'321.0
2017-May-23 18:29N 38°54' E 004°23'1020.8
2017-May-23 18:00N 38°55' E 004°11'1020.6
2017-May-23 17:30N 38°56' E 003°57'1020.8
2017-May-23 17:00N 38°56' E 003°44'1020.9
2017-May-23 16:30N 38°57' E 003°31'1120.9
2017-May-23 16:00N 38°58' E 003°17'1021.0
2017-May-23 15:30N 38°60' E 003°04'1121.1
2017-May-23 15:00N 39°04' E 002°52'1019.9
2017-May-23 14:30N 39°13' E 002°46'1918.6
2017-May-23 13:30N 39°31' E 002°39'2 4.6
2017-May-23 13:00N 39°33' E 002°38'0 0.0
2017-May-23 12:30N 39°33' E 002°38'0 0.0
2017-May-23 12:00N 39°33' E 002°38'0 0.0
2017-May-23 11:27N 39°33' E 002°38'0 0.0
2017-May-23 11:00N 39°33' E 002°38'0 0.0
2017-May-23 10:30N 39°33' E 002°38'0 0.0
2017-May-23 10:00N 39°33' E 002°38'0 0.0
2017-May-23 09:30N 39°33' E 002°38'0 0.0
2017-May-23 09:00N 39°33' E 002°38'0 0.0
2017-May-23 08:30N 39°33' E 002°38'0 0.0
2017-May-23 08:00N 39°33' E 002°38'0 0.0
2017-May-23 07:27N 39°33' E 002°38'0 0.0
2017-May-23 07:00N 39°33' E 002°38'0 0.0
2017-May-23 06:28N 39°33' E 002°38'0 0.0
2017-May-23 05:58N 39°33' E 002°38'0 0.0
2017-May-23 05:30N 39°33' E 002°38'1 1.8
2017-May-23 05:00N 39°32' E 002°39'510.5
2017-May-23 04:31N 39°28' E 002°36'510.4
2017-May-23 04:00N 39°25' E 002°30'611.0
2017-May-23 03:30N 39°26' E 002°23'611.5
2017-May-23 03:00N 39°29' E 002°17'611.9
2017-May-23 02:29N 39°33' E 002°11'611.7
2017-May-23 01:59N 39°39' E 002°10'611.5
2017-May-23 01:30N 39°45' E 002°11'611.4
2017-May-23 01:00N 39°50' E 002°11'10953.9
2017-May-23 01:00N 40°00' E 002°06'611.2 030 / 141018.0 20.018.521.0
2017-May-23 00:30N 39°56' E 002°11'611.4
2017-May-23 00:00N 40°02' E 002°11'4275.8
2017-May-23 00:00N 40°00' E 002°06'917.6 040 / 101018.0 20.016.921.0
2017-May-22 23:30N 40°08' E 002°11'611.6
2017-May-22 22:59N 40°14' E 002°11'612.3
2017-May-22 22:30N 40°20' E 002°11'611.9
2017-May-22 22:00N 40°26' E 002°12'611.9
2017-May-22 21:30N 40°31' E 002°12'612.0
2017-May-22 21:00N 40°37' E 002°13'612.0
2017-May-22 20:30N 40°43' E 002°13'612.8
2017-May-22 20:00N 40°50' E 002°13'714.0
2017-May-22 19:30N 40°57' E 002°12'611.8
2017-May-22 19:00N 41°03' E 002°12'612.1
2017-May-22 18:30N 41°09' E 002°12'611.9
2017-May-22 18:00N 41°15' E 002°11'611.4
2017-May-22 17:30N 41°20' E 002°10'2 3.2
2017-May-22 16:59N 41°22' E 002°11'0 0.0
2017-May-22 16:29N 41°22' E 002°11'0 0.0
2017-May-22 15:59N 41°22' E 002°11'0 0.0
2017-May-22 15:23N 41°22' E 002°11'0 0.0
2017-May-22 14:59N 41°22' E 002°11'0 0.0
2017-May-22 13:59N 41°22' E 002°11'0 0.0
2017-May-22 13:29N 41°22' E 002°11'0 0.0
2017-May-22 12:59N 41°22' E 002°11'0 0.0
2017-May-22 12:29N 41°22' E 002°11'0 0.0
2017-May-22 11:53N 41°22' E 002°11'0 0.0
2017-May-22 11:29N 41°22' E 002°11'0 0.0
2017-May-22 10:11N 41°22' E 002°11'0 0.0
2017-May-22 09:59N 41°22' E 002°11'0 0.0
2017-May-22 09:23N 41°22' E 002°11'0 0.0
2017-May-22 08:59N 41°22' E 002°11'0 0.0
2017-May-22 08:23N 41°22' E 002°11'0 0.0
2017-May-22 06:53N 41°22' E 002°11'0 0.0
2017-May-22 06:29N 41°22' E 002°11'0 0.0
2017-May-22 05:59N 41°22' E 002°11'0 0.0
2017-May-22 04:51N 41°22' E 002°11'1 2.5
2017-May-22 04:28N 41°21' E 002°10'4 8.4
2017-May-22 04:00N 41°17' E 002°11'611.3
2017-May-22 03:30N 41°19' E 002°18'815.7
2017-May-22 03:00N 41°23' E 002°27'815.8
2017-May-22 02:30N 41°27' E 002°36'815.9
2017-May-22 02:01N 41°31' E 002°45'816.1
2017-May-22 01:30N 41°36' E 002°54'816.3
2017-May-22 01:01N 41°40' E 003°03'14817.5
2017-May-22 01:00N 41°48' E 003°18'510.7 200 / 181018.0 17.015.417.0
2017-May-22 00:30N 41°45' E 003°13'816.4
2017-May-22 00:00N 41°49' E 003°22'816.4
2017-May-21 23:30N 41°53' E 003°31'4 7.2
2017-May-21 23:00N 41°54' E 003°36'620382.6 180 / 181019.0 17.013.717.0
2017-May-21 22:59N 41°59' E 003°39'816.5
2017-May-21 22:30N 42°05' E 003°46'916.4
2017-May-21 21:59N 42°12' E 003°54'1516.1
2017-May-21 21:01N 42°23' E 004°08'016.4
2017-May-21 21:00N 42°23' E 004°08'916.2
2017-May-21 20:28N 42°30' E 004°16'916.1
2017-May-21 19:55N 42°36' E 004°25'716.4
2017-May-21 19:31N 42°41' E 004°31'1016.4
2017-May-21 18:53N 42°48' E 004°41'716.3
2017-May-21 18:27N 42°53' E 004°48'816.5
2017-May-21 17:58N 42°59' E 004°56'816.5
2017-May-21 17:30N 43°04' E 005°03'815.9
2017-May-21 17:00N 43°11' E 005°08'815.5
2017-May-21 16:30N 43°18' E 005°12'510.7
2017-May-21 16:00N 43°21' E 005°18'1 2.4
2017-May-21 15:25N 43°21' E 005°20'0 0.0
2017-May-21 14:55N 43°21' E 005°20'0 0.0
2017-May-21 13:55N 43°21' E 005°20'0 0.0
2017-May-21 13:28N 43°21' E 005°20'0 0.0
2017-May-21 12:55N 43°21' E 005°20'0 0.0
2017-May-21 12:28N 43°21' E 005°20'0 0.0
2017-May-21 11:58N 43°21' E 005°20'0 0.0
2017-May-21 11:28N 43°21' E 005°20'0 0.0
2017-May-21 10:58N 43°21' E 005°20'0 0.0
2017-May-21 10:25N 43°21' E 005°20'0 0.0
2017-May-21 09:58N 43°21' E 005°20'0 0.0
2017-May-21 09:13N 43°21' E 005°20'0 0.0
2017-May-21 08:58N 43°21' E 005°20'0 0.0
2017-May-21 08:28N 43°21' E 005°20'0 0.0
2017-May-21 07:49N 43°21' E 005°20'0 0.0
2017-May-21 07:28N 43°21' E 005°20'0 0.0
2017-May-21 06:49N 43°21' E 005°20'0 0.0
2017-May-21 06:19N 43°21' E 005°20'0 0.0
2017-May-21 05:49N 43°21' E 005°20'0 0.5
2017-May-21 05:29N 43°21' E 005°20'2 4.2
2017-May-21 05:00N 43°21' E 005°17'510.0
2017-May-21 04:30N 43°17' E 005°12'713.7
2017-May-21 04:00N 43°10' E 005°11'714.3
2017-May-21 03:30N 43°04' E 005°14'813.4
2017-May-21 02:56N 42°57' E 005°20'3313.4
2017-May-21 00:28N 42°47' E 006°03'613.2
2017-May-21 00:00N 42°46' E 006°11'5370.6
2017-May-21 00:00N 42°42' E 006°06'1122.1 310 / 231019.0 17.015.418.0
2017-May-20 23:30N 42°45' E 006°20'713.2
2017-May-20 23:00N 42°45' E 006°29'5350.2
2017-May-20 23:00N 42°42' E 006°24'1223.4 300 / 201018.0 17.013.718.0
2017-May-20 22:30N 42°49' E 006°37'612.9
2017-May-20 22:00N 42°53' E 006°43'612.9
2017-May-20 21:30N 42°57' E 006°50'713.1
2017-May-20 21:00N 43°03' E 006°55'713.5
2017-May-20 20:30N 43°08' E 007°01'613.0
2017-May-20 20:00N 43°14' E 007°01'713.0
2017-May-20 19:30N 43°21' E 007°01'612.9
2017-May-20 19:00N 43°27' E 007°01'5 9.0
2017-May-20 18:30N 43°32' E 007°01'0 0.1
2017-May-20 17:59N 43°32' E 007°01'0 0.0
2017-May-20 17:29N 43°32' E 007°01'0 0.0
2017-May-20 16:59N 43°32' E 007°01'0 0.0
2017-May-20 16:26N 43°32' E 007°01'0 0.0
2017-May-20 15:56N 43°32' E 007°01'0 0.0
2017-May-20 15:29N 43°32' E 007°01'0 0.0
2017-May-20 14:59N 43°32' E 007°01'0 0.1
2017-May-20 14:26N 43°32' E 007°01'0 0.0
2017-May-20 13:26N 43°32' E 007°01'0 0.0
2017-May-20 12:59N 43°32' E 007°01'0 0.0
2017-May-20 12:23N 43°32' E 007°01'0 0.0
2017-May-20 11:59N 43°32' E 007°01'0 0.0
2017-May-20 11:29N 43°32' E 007°01'0 0.0
2017-May-20 10:56N 43°32' E 007°01'0 0.1
2017-May-20 10:26N 43°32' E 007°01'0 0.0
2017-May-20 09:56N 43°32' E 007°01'0 0.1
2017-May-20 09:29N 43°32' E 007°01'0 0.0
2017-May-20 08:53N 43°32' E 007°01'0 0.0
2017-May-20 08:23N 43°32' E 007°01'0 0.0
2017-May-20 07:59N 43°32' E 007°01'0 0.0
2017-May-20 07:29N 43°32' E 007°01'0 0.0
2017-May-20 06:56N 43°32' E 007°01'0 0.0
2017-May-20 06:29N 43°32' E 007°01'0 0.0
2017-May-20 05:59N 43°32' E 007°01'0 0.1
2017-May-20 05:29N 43°32' E 007°01'1 1.6
2017-May-20 05:00N 43°31' E 007°01'3 6.2
2017-May-20 04:30N 43°29' E 007°03'713.4
2017-May-20 04:00N 43°29' E 007°13'713.3
2017-May-20 03:30N 43°29' E 007°22'713.4
2017-May-20 03:00N 43°28' E 007°31'713.6
2017-May-20 02:30N 43°27' E 007°40'713.3
2017-May-20 01:59N 43°26' E 007°50'713.1
2017-May-20 01:27N 43°26' E 007°59'613.2
2017-May-20 00:59N 43°25' E 008°08'613.4
2017-May-20 00:30N 43°25' E 008°17'713.3
2017-May-20 00:00N 43°24' E 008°26'182.3
2017-May-20 00:00N 43°24' E 008°24'816.1 210 / 241014.0 18.014.818.0
2017-May-19 23:30N 43°24' E 008°35'713.5
2017-May-19 23:00N 43°23' E 008°44'713.8
2017-May-19 22:30N 43°23' E 008°53'714.0
2017-May-19 22:00N 43°22' E 009°03'713.1
2017-May-19 21:30N 43°21' E 009°12'713.2
2017-May-19 21:00N 43°20' E 009°21'713.1
2017-May-19 20:30N 43°20' E 009°30'613.0
2017-May-19 20:00N 43°20' E 009°39'613.0
2017-May-19 19:30N 43°19' E 009°48'713.1
2017-May-19 19:00N 43°19' E 009°57'612.8
2017-May-19 18:30N 43°23' E 010°03'613.0
2017-May-19 18:00N 43°28' E 010°09'611.7
2017-May-19 17:30N 43°32' E 010°15'2 4.3
2017-May-19 16:56N 43°33' E 010°18'0 0.0
2017-May-19 16:29N 43°33' E 010°18'0 0.0
2017-May-19 15:56N 43°33' E 010°18'0 0.0
2017-May-19 15:29N 43°33' E 010°18'0 0.0
2017-May-19 14:59N 43°33' E 010°18'0 0.0
2017-May-19 13:59N 43°33' E 010°18'0 0.0
2017-May-19 13:29N 43°33' E 010°18'0 0.0
2017-May-19 12:59N 43°33' E 010°18'0 0.0
2017-May-19 12:29N 43°33' E 010°18'0 0.0
2017-May-19 11:59N 43°33' E 010°18'0 0.0
2017-May-19 11:26N 43°33' E 010°18'0 0.0
2017-May-19 10:56N 43°33' E 010°18'0 0.0
2017-May-19 10:29N 43°33' E 010°18'0 0.0
2017-May-19 09:59N 43°33' E 010°18'0 0.0
2017-May-19 09:29N 43°33' E 010°18'0 0.0
2017-May-19 08:56N 43°33' E 010°18'0 0.0
2017-May-19 08:29N 43°33' E 010°18'0 0.0
2017-May-19 07:59N 43°33' E 010°18'0 0.0
2017-May-19 07:29N 43°33' E 010°18'0 0.0
2017-May-19 06:59N 43°33' E 010°18'0 0.0
2017-May-19 06:26N 43°33' E 010°18'0 0.0
2017-May-19 05:59N 43°33' E 010°18'0 0.0
2017-May-19 05:29N 43°33' E 010°18'0 0.0
2017-May-19 04:59N 43°33' E 010°18'0 0.6
2017-May-19 04:30N 43°33' E 010°18'3 5.4
2017-May-19 04:00N 43°31' E 010°15'4 8.9
2017-May-19 03:30N 43°27' E 010°12'611.5
2017-May-19 03:00N 43°22' E 010°11'611.8
2017-May-19 02:30N 43°16' E 010°09'611.8
2017-May-19 02:00N 43°10' E 010°08'611.8
2017-May-19 01:30N 43°04' E 010°06'611.8
2017-May-19 01:00N 42°58' E 010°05'6388.8
2017-May-19 01:00N 42°54' E 010°00'3 5.6 150 / 151014.0 19.015.920.0
2017-May-19 00:30N 42°53' E 010°03'611.7
2017-May-19 00:00N 42°47' E 010°02'5345.2
2017-May-19 00:00N 42°42' E 010°00'4 8.2 140 / 141014.0 19.015.920.0
2017-May-18 23:30N 42°42' E 010°05'911.7
2017-May-18 22:45N 42°36' E 010°14'511.9
2017-May-18 22:19N 42°32' E 010°18'812.0
2017-May-18 21:41N 42°26' E 010°25'311.9
2017-May-18 21:25N 42°24' E 010°27'511.9
2017-May-18 21:01N 42°19' E 010°30'168.4
2017-May-18 21:00N 42°18' E 010°30'510.4 170 / 71015.0 5.4 19.017.520.0
2017-May-18 20:30N 42°14' E 010°34'611.3
2017-May-18 20:00N 42°09' E 010°38'612.4
2017-May-18 19:31N 42°07' E 010°46'611.7
2017-May-18 19:00N 42°05' E 010°53'5336.5
2017-May-18 19:00N 42°00' E 010°54'611.9 190 / 101015.0 5.4 19.017.520.0
2017-May-18 18:30N 42°03' E 011°01'611.7
2017-May-18 18:00N 42°02' E 011°08'611.6
2017-May-18 17:30N 42°00' E 011°16'711.4
2017-May-18 16:51N 42°01' E 011°26'411.5
2017-May-18 16:29N 42°03' E 011°31'611.5
2017-May-18 16:00N 42°05' E 011°38'610.6
2017-May-18 15:26N 42°07' E 011°46'1 2.4
2017-May-18 14:57N 42°06' E 011°47'1 0.1
2017-May-18 04:13N 42°06' E 011°46'3 8.2
2017-May-18 03:53N 42°05' E 011°43'613.5
2017-May-18 03:25N 41°59' E 011°42'2214.6
2017-May-18 01:56N 41°39' E 011°54'614.9
2017-May-18 01:30N 41°34' E 012°00'4 8.6
2017-May-18 01:00N 41°30' E 012°00'6107.2 240 / 51016.0 20.016.920.0
2017-May-18 00:56N 41°28' E 012°08'714.9
2017-May-18 00:27N 41°23' E 012°15'1125.2
2017-May-18 00:00N 41°12' E 012°18'71139.0 140 / 61018.0 20.016.920.0
2017-May-17 23:59N 41°18' E 012°22'714.8
2017-May-17 23:30N 41°14' E 012°30'815.0
2017-May-17 22:58N 41°11' E 012°39'1615.2
2017-May-17 21:56N 41°06' E 012°59'1516.5
2017-May-17 21:00N 40°54' E 013°12'722.0 340 / 101017.0 5.4 20.018.520.0
2017-May-17 20:40N 40°56' E 013°21'215.1
2017-May-17 20:30N 40°55' E 013°24'815.0
2017-May-17 20:00N 40°51' E 013°32'714.9
2017-May-17 19:31N 40°46' E 013°39'815.0
2017-May-17 19:00N 40°40' E 013°45'5310.1
2017-May-17 19:00N 40°36' E 013°42'918.5 010 / 101017.0 5.4 21.019.521.0
2017-May-17 18:31N 40°36' E 013°54'714.3
2017-May-17 18:00N 40°39' E 014°03'715.2
2017-May-17 17:31N 40°44' E 014°10'33 2.1
2017-May-17 02:00N 40°12' E 014°24'2010.1 070 / 201020.0 20.016.920.0
2017-May-17 00:00N 39°54' E 014°36'1320.2 030 / 201020.0 21.018.021.0
2017-May-16 23:21N 39°45' E 014°48'924.8
2017-May-16 23:00N 39°36' E 014°48'2513.8 030 / 101020.0 21.018.021.0
2017-May-16 21:13N 39°16' E 015°06'2114.9
2017-May-16 19:49N 38°57' E 015°18'614.8
2017-May-16 19:27N 38°52' E 015°21'1022.8
2017-May-16 19:00N 38°42' E 015°24'4455.9 080 / 41020.0 5.4 20.018.520.0
2017-May-16 18:59N 38°46' E 015°25'715.2
2017-May-16 18:30N 38°40' E 015°29'815.0
2017-May-16 18:00N 38°33' E 015°34'715.0
2017-May-16 17:30N 38°26' E 015°38'715.0
2017-May-16 17:01N 38°20' E 015°43'713.5
2017-May-16 16:30N 38°14' E 015°38'5 9.1
2017-May-16 16:00N 38°12' E 015°33'0 0.0
2017-May-16 15:29N 38°12' E 015°33'0 0.0
2017-May-16 14:59N 38°12' E 015°33'0 0.0
2017-May-16 13:59N 38°12' E 015°33'0 0.0
2017-May-16 13:29N 38°12' E 015°33'0 0.0
2017-May-16 12:59N 38°12' E 015°33'0 0.0
2017-May-16 12:29N 38°12' E 015°33'0 0.0
2017-May-16 11:59N 38°12' E 015°33'0 0.0
2017-May-16 11:29N 38°12' E 015°33'0 0.0
2017-May-16 10:59N 38°12' E 015°33'0 0.0
2017-May-16 10:29N 38°12' E 015°33'0 0.0
2017-May-16 09:59N 38°12' E 015°33'0 0.0
2017-May-16 09:29N 38°12' E 015°33'0 0.0
2017-May-16 08:59N 38°12' E 015°33'0 0.0
2017-May-16 08:29N 38°12' E 015°33'0 0.0
2017-May-16 07:59N 38°12' E 015°33'0 0.0
2017-May-16 07:29N 38°12' E 015°33'0 0.0
2017-May-16 06:59N 38°12' E 015°33'0 0.0
2017-May-16 06:29N 38°12' E 015°33'0 0.0
2017-May-16 05:59N 38°12' E 015°33'0 0.0
2017-May-16 05:29N 38°12' E 015°33'0 0.0
2017-May-16 05:00N 38°12' E 015°33'2 3.6
2017-May-16 04:30N 38°13' E 015°35'510.5
2017-May-16 04:01N 38°08' E 015°36'713.6
2017-May-16 03:30N 38°01' E 015°35'612.9
2017-May-16 03:00N 37°55' E 015°39'713.5
2017-May-16 02:30N 37°50' E 015°45'713.2
2017-May-16 02:00N 37°48' E 015°53'4 8.1
2017-May-16 01:30N 37°48' E 015°58'611.5
2017-May-16 01:00N 37°42' E 016°00'5347.0 140 / 21020.0 20.016.921.0
2017-May-16 00:59N 37°47' E 016°02'3 6.7
2017-May-16 00:28N 37°46' E 016°06'4 9.5
2017-May-16 00:00N 37°42' E 016°06'19 6.3 150 / 21020.0 20.016.921.0
2017-May-15 21:00N 37°42' E 016°30'14 7.1 070 / 51020.0 5.4 20.018.521.0
2017-May-15 19:00N 37°42' E 016°48'38 6.4 270 / 51020.0 5.4 21.019.521.0
2017-May-15 13:00N 37°36' E 017°36'10 9.5 360 / 81021.0 20.018.521.0
2017-May-15 12:00N 37°36' E 017°48'10 9.5 340 / 121021.0 20.018.520.0
2017-May-15 11:00N 37°36' E 018°00'   350 / 131021.0 20.016.920.0
Track history (hours):
 
Tides and Currents Weather Stations Pressure Air Temp Water Temp Dewpoint Dewpoint Depression Visibility Wind Speed Wind Dir Waves Ship Positions

Norwegian Spirit

Operator: Norwegian Cruise Line

Last reported at 2017-May-25 02:30 UTC. Time now 2017-May-25 02:53 UTC.
Position N 38°48' E 010°45'.

Type: Passenger vessel. MMSI: 311746000.

Date/timePositionNaut miles runAvg speedWind from/ knotsBaromVisibWave heightAir tempDewpointWater temp
2017-May-25 02:30N 38°48' E 010°45'4 7.1
2017-May-25 02:00N 38°49' E 010°40'4 7.3
2017-May-25 01:29N 38°50' E 010°36'917.6
2017-May-25 01:00N 38°42' E 010°30'82440.8 200 / 131017.0 20.016.921.0
2017-May-25 00:59N 38°50' E 010°31'4 7.6
2017-May-25 00:30N 38°51' E 010°26'4 7.6
2017-May-24 23:59N 38°51' E 010°21'4 7.5
2017-May-24 23:27N 38°52' E 010°16'3 7.4
2017-May-24 23:00N 38°53' E 010°12'5511.9
2017-May-24 23:00N 38°48' E 010°12'613.1 190 / 131017.0 20.018.521.0
2017-May-24 22:30N 38°53' E 010°07'4 7.3
2017-May-24 21:59N 38°54' E 010°02'4 7.3
2017-May-24 21:25N 38°55' E 009°57'3 7.4
2017-May-24 21:00N 38°55' E 009°53'4 7.2
2017-May-24 20:30N 38°56' E 009°49'4 8.0
2017-May-24 19:57N 38°56' E 009°43'4 9.0
2017-May-24 19:30N 38°57' E 009°38'4 9.1
2017-May-24 19:00N 38°58' E 009°32'5 9.0
2017-May-24 18:29N 38°60' E 009°27'4 9.1
2017-May-24 18:00N 39°01' E 009°21'5 9.2
2017-May-24 17:30N 39°03' E 009°16'4 9.1
2017-May-24 17:00N 39°05' E 009°11'5 9.1
2017-May-24 16:30N 39°09' E 009°07'4 7.8
2017-May-24 15:59N 39°12' E 009°06'0 0.1
2017-May-24 15:30N 39°13' E 009°06'0 0.0
2017-May-24 15:00N 39°13' E 009°06'0 0.0
2017-May-24 14:30N 39°13' E 009°06'0 0.0
2017-May-24 13:30N 39°13' E 009°06'0 0.0
2017-May-24 13:00N 39°13' E 009°06'0 0.0
2017-May-24 12:30N 39°13' E 009°06'0 0.0
2017-May-24 12:00N 39°13' E 009°06'0 0.0
2017-May-24 11:30N 39°13' E 009°06'0 0.0
2017-May-24 11:00N 39°13' E 009°06'0 0.0
2017-May-24 10:30N 39°13' E 009°06'0 0.0
2017-May-24 10:00N 39°13' E 009°06'9810.9
2017-May-24 01:00N 38°42' E 007°06'3316.4 040 / 81020.0 19.019.021.0
2017-May-23 23:00N 38°42' E 006°24'9221.0 040 / 71020.0 19.015.921.0
2017-May-23 18:37N 38°54' E 004°27'321.0
2017-May-23 18:29N 38°54' E 004°23'1020.8
2017-May-23 18:00N 38°55' E 004°11'1020.6
2017-May-23 17:30N 38°56' E 003°57'1020.8
2017-May-23 17:00N 38°56' E 003°44'1020.9
2017-May-23 16:30N 38°57' E 003°31'1120.9
2017-May-23 16:00N 38°58' E 003°17'1021.0
2017-May-23 15:30N 38°60' E 003°04'1121.1
2017-May-23 15:00N 39°04' E 002°52'1019.9
2017-May-23 14:30N 39°13' E 002°46'1918.6
2017-May-23 13:30N 39°31' E 002°39'2 4.6
2017-May-23 13:00N 39°33' E 002°38'0 0.0
2017-May-23 12:30N 39°33' E 002°38'0 0.0
2017-May-23 12:00N 39°33' E 002°38'0 0.0
2017-May-23 11:27N 39°33' E 002°38'0 0.0
2017-May-23 11:00N 39°33' E 002°38'0 0.0
2017-May-23 10:30N 39°33' E 002°38'0 0.0
2017-May-23 10:00N 39°33' E 002°38'0 0.0
2017-May-23 09:30N 39°33' E 002°38'0 0.0
2017-May-23 09:00N 39°33' E 002°38'0 0.0
2017-May-23 08:30N 39°33' E 002°38'0 0.0
2017-May-23 08:00N 39°33' E 002°38'0 0.0
2017-May-23 07:27N 39°33' E 002°38'0 0.0
2017-May-23 07:00N 39°33' E 002°38'0 0.0
2017-May-23 06:28N 39°33' E 002°38'0 0.0
2017-May-23 05:58N 39°33' E 002°38'0 0.0
2017-May-23 05:30N 39°33' E 002°38'1 1.8
2017-May-23 05:00N 39°32' E 002°39'510.5
2017-May-23 04:31N 39°28' E 002°36'510.4
2017-May-23 04:00N 39°25' E 002°30'611.0
2017-May-23 03:30N 39°26' E 002°23'611.5
2017-May-23 03:00N 39°29' E 002°17'611.9
2017-May-23 02:29N 39°33' E 002°11'611.7
2017-May-23 01:59N 39°39' E 002°10'611.5
2017-May-23 01:30N 39°45' E 002°11'611.4
2017-May-23 01:00N 39°50' E 002°11'10953.9
2017-May-23 01:00N 40°00' E 002°06'611.2 030 / 141018.0 20.018.521.0
2017-May-23 00:30N 39°56' E 002°11'611.4
2017-May-23 00:00N 40°02' E 002°11'4275.8
2017-May-23 00:00N 40°00' E 002°06'917.6 040 / 101018.0 20.016.921.0
2017-May-22 23:30N 40°08' E 002°11'611.6
2017-May-22 22:59N 40°14' E 002°11'612.3
2017-May-22 22:30N 40°20' E 002°11'611.9
2017-May-22 22:00N 40°26' E 002°12'611.9
2017-May-22 21:30N 40°31' E 002°12'612.0
2017-May-22 21:00N 40°37' E 002°13'612.0
2017-May-22 20:30N 40°43' E 002°13'612.8
2017-May-22 20:00N 40°50' E 002°13'714.0
2017-May-22 19:30N 40°57' E 002°12'611.8
2017-May-22 19:00N 41°03' E 002°12'612.1
2017-May-22 18:30N 41°09' E 002°12'611.9
2017-May-22 18:00N 41°15' E 002°11'611.4
2017-May-22 17:30N 41°20' E 002°10'2 3.2
2017-May-22 16:59N 41°22' E 002°11'0 0.0
2017-May-22 16:29N 41°22' E 002°11'0 0.0
2017-May-22 15:59N 41°22' E 002°11'0 0.0
2017-May-22 15:23N 41°22' E 002°11'0 0.0
2017-May-22 14:59N 41°22' E 002°11'0 0.0
2017-May-22 13:59N 41°22' E 002°11'0 0.0
2017-May-22 13:29N 41°22' E 002°11'0 0.0
2017-May-22 12:59N 41°22' E 002°11'0 0.0
2017-May-22 12:29N 41°22' E 002°11'0 0.0
2017-May-22 11:53N 41°22' E 002°11'0 0.0
2017-May-22 11:29N 41°22' E 002°11'0 0.0
2017-May-22 10:11N 41°22' E 002°11'0 0.0
2017-May-22 09:59N 41°22' E 002°11'0 0.0
2017-May-22 09:23N 41°22' E 002°11'0 0.0
2017-May-22 08:59N 41°22' E 002°11'0 0.0
2017-May-22 08:23N 41°22' E 002°11'0 0.0
2017-May-22 06:53N 41°22' E 002°11'0 0.0
2017-May-22 06:29N 41°22' E 002°11'0 0.0
2017-May-22 05:59N 41°22' E 002°11'0 0.0
2017-May-22 04:51N 41°22' E 002°11'1 2.5
2017-May-22 04:28N 41°21' E 002°10'4 8.4
2017-May-22 04:00N 41°17' E 002°11'611.3
2017-May-22 03:30N 41°19' E 002°18'815.7
2017-May-22 03:00N 41°23' E 002°27'815.8
2017-May-22 02:30N 41°27' E 002°36'815.9
2017-May-22 02:01N 41°31' E 002°45'816.1
2017-May-22 01:30N 41°36' E 002°54'816.3
2017-May-22 01:01N 41°40' E 003°03'14817.5
2017-May-22 01:00N 41°48' E 003°18'510.7 200 / 181018.0 17.015.417.0
2017-May-22 00:30N 41°45' E 003°13'816.4
2017-May-22 00:00N 41°49' E 003°22'816.4
2017-May-21 23:30N 41°53' E 003°31'4 7.2
2017-May-21 23:00N 41°54' E 003°36'620382.6 180 / 181019.0 17.013.717.0
2017-May-21 22:59N 41°59' E 003°39'816.5
2017-May-21 22:30N 42°05' E 003°46'916.4
2017-May-21 21:59N 42°12' E 003°54'1516.1
2017-May-21 21:01N 42°23' E 004°08'016.4
2017-May-21 21:00N 42°23' E 004°08'916.2
2017-May-21 20:28N 42°30' E 004°16'916.1
2017-May-21 19:55N 42°36' E 004°25'716.4
2017-May-21 19:31N 42°41' E 004°31'1016.4
2017-May-21 18:53N 42°48' E 004°41'716.3
2017-May-21 18:27N 42°53' E 004°48'816.5
2017-May-21 17:58N 42°59' E 004°56'816.5
2017-May-21 17:30N 43°04' E 005°03'815.9
2017-May-21 17:00N 43°11' E 005°08'815.5
2017-May-21 16:30N 43°18' E 005°12'510.7
2017-May-21 16:00N 43°21' E 005°18'1 2.4
2017-May-21 15:25N 43°21' E 005°20'0 0.0
2017-May-21 14:55N 43°21' E 005°20'0 0.0
2017-May-21 13:55N 43°21' E 005°20'0 0.0
2017-May-21 13:28N 43°21' E 005°20'0 0.0
2017-May-21 12:55N 43°21' E 005°20'0 0.0
2017-May-21 12:28N 43°21' E 005°20'0 0.0
2017-May-21 11:58N 43°21' E 005°20'0 0.0
2017-May-21 11:28N 43°21' E 005°20'0 0.0
2017-May-21 10:58N 43°21' E 005°20'0 0.0
2017-May-21 10:25N 43°21' E 005°20'0 0.0
2017-May-21 09:58N 43°21' E 005°20'0 0.0
2017-May-21 09:13N 43°21' E 005°20'0 0.0
2017-May-21 08:58N 43°21' E 005°20'0 0.0
2017-May-21 08:28N 43°21' E 005°20'0 0.0
2017-May-21 07:49N 43°21' E 005°20'0 0.0
2017-May-21 07:28N 43°21' E 005°20'0 0.0
2017-May-21 06:49N 43°21' E 005°20'0 0.0
2017-May-21 06:19N 43°21' E 005°20'0 0.0
2017-May-21 05:49N 43°21' E 005°20'0 0.5
2017-May-21 05:29N 43°21' E 005°20'2 4.2
2017-May-21 05:00N 43°21' E 005°17'510.0
2017-May-21 04:30N 43°17' E 005°12'713.7
2017-May-21 04:00N 43°10' E 005°11'714.3
2017-May-21 03:30N 43°04' E 005°14'813.4
2017-May-21 02:56N 42°57' E 005°20'3313.4
2017-May-21 00:28N 42°47' E 006°03'613.2
2017-May-21 00:00N 42°46' E 006°11'5370.6
2017-May-21 00:00N 42°42' E 006°06'1122.1 310 / 231019.0 17.015.418.0
2017-May-20 23:30N 42°45' E 006°20'713.2
2017-May-20 23:00N 42°45' E 006°29'5350.2
2017-May-20 23:00N 42°42' E 006°24'1223.4 300 / 201018.0 17.013.718.0
2017-May-20 22:30N 42°49' E 006°37'612.9
2017-May-20 22:00N 42°53' E 006°43'612.9
2017-May-20 21:30N 42°57' E 006°50'713.1
2017-May-20 21:00N 43°03' E 006°55'713.5
2017-May-20 20:30N 43°08' E 007°01'613.0
2017-May-20 20:00N 43°14' E 007°01'713.0
2017-May-20 19:30N 43°21' E 007°01'612.9
2017-May-20 19:00N 43°27' E 007°01'5 9.0
2017-May-20 18:30N 43°32' E 007°01'0 0.1
2017-May-20 17:59N 43°32' E 007°01'0 0.0
2017-May-20 17:29N 43°32' E 007°01'0 0.0
2017-May-20 16:59N 43°32' E 007°01'0 0.0
2017-May-20 16:26N 43°32' E 007°01'0 0.0
2017-May-20 15:56N 43°32' E 007°01'0 0.0
2017-May-20 15:29N 43°32' E 007°01'0 0.0
2017-May-20 14:59N 43°32' E 007°01'0 0.1
2017-May-20 14:26N 43°32' E 007°01'0 0.0
2017-May-20 13:26N 43°32' E 007°01'0 0.0
2017-May-20 12:59N 43°32' E 007°01'0 0.0
2017-May-20 12:23N 43°32' E 007°01'0 0.0
2017-May-20 11:59N 43°32' E 007°01'0 0.0
2017-May-20 11:29N 43°32' E 007°01'0 0.0
2017-May-20 10:56N 43°32' E 007°01'0 0.1
2017-May-20 10:26N 43°32' E 007°01'0 0.0
2017-May-20 09:56N 43°32' E 007°01'0 0.1
2017-May-20 09:29N 43°32' E 007°01'0 0.0
2017-May-20 08:53N 43°32' E 007°01'0 0.0
2017-May-20 08:23N 43°32' E 007°01'0 0.0
2017-May-20 07:59N 43°32' E 007°01'0 0.0
2017-May-20 07:29N 43°32' E 007°01'0 0.0
2017-May-20 06:56N 43°32' E 007°01'0 0.0
2017-May-20 06:29N 43°32' E 007°01'0 0.0
2017-May-20 05:59N 43°32' E 007°01'0 0.1
2017-May-20 05:29N 43°32' E 007°01'1 1.6
2017-May-20 05:00N 43°31' E 007°01'3 6.2
2017-May-20 04:30N 43°29' E 007°03'713.4
2017-May-20 04:00N 43°29' E 007°13'713.3
2017-May-20 03:30N 43°29' E 007°22'713.4
2017-May-20 03:00N 43°28' E 007°31'713.6
2017-May-20 02:30N 43°27' E 007°40'713.3
2017-May-20 01:59N 43°26' E 007°50'713.1
2017-May-20 01:27N 43°26' E 007°59'613.2
2017-May-20 00:59N 43°25' E 008°08'613.4
2017-May-20 00:30N 43°25' E 008°17'713.3
2017-May-20 00:00N 43°24' E 008°26'182.3
2017-May-20 00:00N 43°24' E 008°24'816.1 210 / 241014.0 18.014.818.0
2017-May-19 23:30N 43°24' E 008°35'713.5
2017-May-19 23:00N 43°23' E 008°44'713.8
2017-May-19 22:30N 43°23' E 008°53'714.0
2017-May-19 22:00N 43°22' E 009°03'713.1
2017-May-19 21:30N 43°21' E 009°12'713.2
2017-May-19 21:00N 43°20' E 009°21'713.1
2017-May-19 20:30N 43°20' E 009°30'613.0
2017-May-19 20:00N 43°20' E 009°39'613.0
2017-May-19 19:30N 43°19' E 009°48'713.1
2017-May-19 19:00N 43°19' E 009°57'612.8
2017-May-19 18:30N 43°23' E 010°03'613.0
2017-May-19 18:00N 43°28' E 010°09'611.7
2017-May-19 17:30N 43°32' E 010°15'2 4.3
2017-May-19 16:56N 43°33' E 010°18'0 0.0
2017-May-19 16:29N 43°33' E 010°18'0 0.0
2017-May-19 15:56N 43°33' E 010°18'0 0.0
2017-May-19 15:29N 43°33' E 010°18'0 0.0
2017-May-19 14:59N 43°33' E 010°18'0 0.0
2017-May-19 13:59N 43°33' E 010°18'0 0.0
2017-May-19 13:29N 43°33' E 010°18'0 0.0
2017-May-19 12:59N 43°33' E 010°18'0 0.0
2017-May-19 12:29N 43°33' E 010°18'0 0.0
2017-May-19 11:59N 43°33' E 010°18'0 0.0
2017-May-19 11:26N 43°33' E 010°18'0 0.0
2017-May-19 10:56N 43°33' E 010°18'0 0.0
2017-May-19 10:29N 43°33' E 010°18'0 0.0
2017-May-19 09:59N 43°33' E 010°18'0 0.0
2017-May-19 09:29N 43°33' E 010°18'0 0.0
2017-May-19 08:56N 43°33' E 010°18'0 0.0
2017-May-19 08:29N 43°33' E 010°18'0 0.0
2017-May-19 07:59N 43°33' E 010°18'0 0.0
2017-May-19 07:29N 43°33' E 010°18'0 0.0
2017-May-19 06:59N 43°33' E 010°18'0 0.0
2017-May-19 06:26N 43°33' E 010°18'0 0.0
2017-May-19 05:59N 43°33' E 010°18'0 0.0
2017-May-19 05:29N 43°33' E 010°18'0 0.0
2017-May-19 04:59N 43°33' E 010°18'0 0.6
2017-May-19 04:30N 43°33' E 010°18'3 5.4
2017-May-19 04:00N 43°31' E 010°15'4 8.9
2017-May-19 03:30N 43°27' E 010°12'611.5
2017-May-19 03:00N 43°22' E 010°11'611.8
2017-May-19 02:30N 43°16' E 010°09'611.8
2017-May-19 02:00N 43°10' E 010°08'611.8
2017-May-19 01:30N 43°04' E 010°06'611.8
2017-May-19 01:00N 42°58' E 010°05'6388.8
2017-May-19 01:00N 42°54' E 010°00'3 5.6 150 / 151014.0 19.015.920.0
2017-May-19 00:30N 42°53' E 010°03'611.7
2017-May-19 00:00N 42°47' E 010°02'5345.2
2017-May-19 00:00N 42°42' E 010°00'4 8.2 140 / 141014.0 19.015.920.0
2017-May-18 23:30N 42°42' E 010°05'911.7
2017-May-18 22:45N 42°36' E 010°14'511.9
2017-May-18 22:19N 42°32' E 010°18'812.0
2017-May-18 21:41N 42°26' E 010°25'311.9
2017-May-18 21:25N 42°24' E 010°27'511.9
2017-May-18 21:01N 42°19' E 010°30'168.4
2017-May-18 21:00N 42°18' E 010°30'510.4 170 / 71015.0 5.4 19.017.520.0
2017-May-18 20:30N 42°14' E 010°34'611.3
2017-May-18 20:00N 42°09' E 010°38'612.4
2017-May-18 19:31N 42°07' E 010°46'611.7
2017-May-18 19:00N 42°05' E 010°53'5336.5
2017-May-18 19:00N 42°00' E 010°54'611.9 190 / 101015.0 5.4 19.017.520.0
2017-May-18 18:30N 42°03' E 011°01'611.7
2017-May-18 18:00N 42°02' E 011°08'611.6
2017-May-18 17:30N 42°00' E 011°16'711.4
2017-May-18 16:51N 42°01' E 011°26'411.5
2017-May-18 16:29N 42°03' E 011°31'611.5
2017-May-18 16:00N 42°05' E 011°38'610.6
2017-May-18 15:26N 42°07' E 011°46'1 2.4
2017-May-18 14:57N 42°06' E 011°47'1 0.1
2017-May-18 04:13N 42°06' E 011°46'3 8.2
2017-May-18 03:53N 42°05' E 011°43'613.5
2017-May-18 03:25N 41°59' E 011°42'2214.6
2017-May-18 01:56N 41°39' E 011°54'614.9
2017-May-18 01:30N 41°34' E 012°00'4 8.6
2017-May-18 01:00N 41°30' E 012°00'6107.2 240 / 51016.0 20.016.920.0
2017-May-18 00:56N 41°28' E 012°08'714.9
2017-May-18 00:27N 41°23' E 012°15'1125.2
2017-May-18 00:00N 41°12' E 012°18'71139.0 140 / 61018.0 20.016.920.0
2017-May-17 23:59N 41°18' E 012°22'714.8
2017-May-17 23:30N 41°14' E 012°30'815.0
2017-May-17 22:58N 41°11' E 012°39'1615.2
2017-May-17 21:56N 41°06' E 012°59'1516.5
2017-May-17 21:00N 40°54' E 013°12'722.0 340 / 101017.0 5.4 20.018.520.0
2017-May-17 20:40N 40°56' E 013°21'215.1
2017-May-17 20:30N 40°55' E 013°24'815.0
2017-May-17 20:00N 40°51' E 013°32'714.9
2017-May-17 19:31N 40°46' E 013°39'815.0
2017-May-17 19:00N 40°40' E 013°45'5310.1
2017-May-17 19:00N 40°36' E 013°42'918.5 010 / 101017.0 5.4 21.019.521.0
2017-May-17 18:31N 40°36' E 013°54'714.3
2017-May-17 18:00N 40°39' E 014°03'715.2
2017-May-17 17:31N 40°44' E 014°10'33 2.1
2017-May-17 02:00N 40°12' E 014°24'2010.1 070 / 201020.0 20.016.920.0
2017-May-17 00:00N 39°54' E 014°36'1320.2 030 / 201020.0 21.018.021.0
2017-May-16 23:21N 39°45' E 014°48'924.8
2017-May-16 23:00N 39°36' E 014°48'2513.8 030 / 101020.0 21.018.021.0
2017-May-16 21:13N 39°16' E 015°06'2114.9
2017-May-16 19:49N 38°57' E 015°18'614.8
2017-May-16 19:27N 38°52' E 015°21'1022.8
2017-May-16 19:00N 38°42' E 015°24'4455.9 080 / 41020.0 5.4 20.018.520.0
2017-May-16 18:59N 38°46' E 015°25'715.2
2017-May-16 18:30N 38°40' E 015°29'815.0
2017-May-16 18:00N 38°33' E 015°34'715.0
2017-May-16 17:30N 38°26' E 015°38'715.0
2017-May-16 17:01N 38°20' E 015°43'713.5
2017-May-16 16:30N 38°14' E 015°38'5 9.1
2017-May-16 16:00N 38°12' E 015°33'0 0.0
2017-May-16 15:29N 38°12' E 015°33'0 0.0
2017-May-16 14:59N 38°12' E 015°33'0 0.0
2017-May-16 13:59N 38°12' E 015°33'0 0.0
2017-May-16 13:29N 38°12' E 015°33'0 0.0
2017-May-16 12:59N 38°12' E 015°33'0 0.0
2017-May-16 12:29N 38°12' E 015°33'0 0.0
2017-May-16 11:59N 38°12' E 015°33'0 0.0
2017-May-16 11:29N 38°12' E 015°33'0 0.0
2017-May-16 10:59N 38°12' E 015°33'0 0.0
2017-May-16 10:29N 38°12' E 015°33'0 0.0
2017-May-16 09:59N 38°12' E 015°33'0 0.0
2017-May-16 09:29N 38°12' E 015°33'0 0.0
2017-May-16 08:59N 38°12' E 015°33'0 0.0
2017-May-16 08:29N 38°12' E 015°33'0 0.0
2017-May-16 07:59N 38°12' E 015°33'0 0.0
2017-May-16 07:29N 38°12' E 015°33'0 0.0
2017-May-16 06:59N 38°12' E 015°33'0 0.0
2017-May-16 06:29N 38°12' E 015°33'0 0.0
2017-May-16 05:59N 38°12' E 015°33'0 0.0
2017-May-16 05:29N 38°12' E 015°33'0 0.0
2017-May-16 05:00N 38°12' E 015°33'2 3.6
2017-May-16 04:30N 38°13' E 015°35'510.5
2017-May-16 04:01N 38°08' E 015°36'713.6
2017-May-16 03:30N 38°01' E 015°35'612.9
2017-May-16 03:00N 37°55' E 015°39'713.5
2017-May-16 02:30N 37°50' E 015°45'713.2
2017-May-16 02:00N 37°48' E 015°53'4 8.1
2017-May-16 01:30N 37°48' E 015°58'611.5
2017-May-16 01:00N 37°42' E 016°00'5347.0 140 / 21020.0 20.016.921.0
2017-May-16 00:59N 37°47' E 016°02'3 6.7
2017-May-16 00:28N 37°46' E 016°06'4 9.5
2017-May-16 00:00N 37°42' E 016°06'19 6.3 150 / 21020.0 20.016.921.0
2017-May-15 21:00N 37°42' E 016°30'14 7.1 070 / 51020.0 5.4 20.018.521.0
2017-May-15 19:00N 37°42' E 016°48'38 6.4 270 / 51020.0 5.4 21.019.521.0
2017-May-15 13:00N 37°36' E 017°36'10 9.5 360 / 81021.0 20.018.521.0
2017-May-15 12:00N 37°36' E 017°48'10 9.5 340 / 121021.0 20.018.520.0
2017-May-15 11:00N 37°36' E 018°00'   350 / 131021.0 20.016.920.0

Dump ship's entire track history